Time;durP1;ratioP1;P1;durP2;ratioP2;P2;SDS_P1;SDS_P2;PMS_P1;PMS_P2;Temp;Humidity;BMP_temperature;BMP_pressure;BME280_temperature;BME280_humidity;BME280_pressure;Samples;Min_cycle;Max_cycle;Signal;HPM_P1;HPM_P2
2022/08/15 00:00:52;;;;;;;4.57;2.30;;;;;;;24.35;37.13;98910.41;5009413;28;20236;-77
2022/08/15 00:03:23;;;;;;;7.40;1.70;;;;;;;24.43;36.37;98918.06;5030611;28;20213;-78
2022/08/15 00:05:49;;;;;;;4.27;1.97;;;;;;;24.42;36.30;98915.66;5009989;28;20702;-77
2022/08/15 00:08:14;;;;;;;2.90;1.57;;;;;;;24.44;36.44;98911.81;5011250;28;20237;-77
2022/08/15 00:10:44;;;;;;;4.57;1.97;;;;;;;24.50;36.36;98903.09;5008734;28;20295;-78
2022/08/15 00:13:19;;;;;;;1.67;1.57;;;;;;;24.34;36.09;98903.53;5032601;28;20201;-78
2022/08/15 00:15:47;;;;;;;7.17;1.83;;;;;;;24.39;36.24;98906.34;5009810;28;20664;-78
2022/08/15 00:18:13;;;;;;;3.43;1.90;;;;;;;24.26;36.28;98907.19;5010509;28;20174;-78
2022/08/15 00:20:39;;;;;;;2.43;1.80;;;;;;;24.32;36.21;98906.38;5011082;28;20277;-78
2022/08/15 00:23:09;;;;;;;3.03;1.97;;;;;;;24.33;35.95;98901.91;5021590;28;20235;-78
2022/08/15 00:25:37;;;;;;;2.03;1.77;;;;;;;24.34;35.71;98901.69;5042581;28;20189;-78
2022/08/15 00:28:05;;;;;;;2.40;2.00;;;;;;;24.39;36.52;98890.59;5011054;28;20175;-78
2022/08/15 00:30:31;;;;;;;2.73;1.93;;;;;;;24.34;36.56;98896.44;4998923;28;20282;-79
2022/08/15 00:32:57;;;;;;;6.40;1.83;;;;;;;24.18;36.18;98895.03;5039848;28;20179;-77
2022/08/15 00:35:36;;;;;;;3.53;1.90;;;;;;;24.22;36.47;98895.44;5014550;28;20215;-77
2022/08/15 00:38:03;;;;;;;3.13;2.13;;;;;;;24.24;36.50;98884.75;5013446;28;20179;-76
2022/08/15 00:40:28;;;;;;;2.17;1.97;;;;;;;24.12;36.61;98889.78;5011074;28;20276;-77
2022/08/15 00:42:54;;;;;;;2.00;1.73;;;;;;;24.09;37.19;98888.38;5040281;28;20229;-77
2022/08/15 00:45:21;;;;;;;1.73;1.63;;;;;;;23.90;38.24;98889.13;5014291;28;20182;-77
2022/08/15 00:48:41;;;;;;;3.23;2.07;;;;;;;23.79;38.73;98880.84;5016255;28;20182;-77
2022/08/15 00:50:34;;;;;;;5.23;2.40;;;;;;;23.64;39.26;98862.66;5012655;28;20221;-78
2022/08/15 00:53:06;;;;;;;4.47;2.00;;;;;;;23.64;39.56;98849.53;5038503;28;20298;-78
2022/08/15 00:55:33;;;;;;;2.73;1.90;;;;;;;23.67;39.84;98837.81;5014112;28;20223;-77
2022/08/15 00:58:00;;;;;;;5.30;1.93;;;;;;;23.77;39.98;98848.72;5014390;28;20285;-78
2022/08/15 01:00:31;;;;;;;8.23;1.97;;;;;;;23.77;40.00;98851.34;5010594;28;20221;-76
2022/08/15 01:03:00;;;;;;;3.33;2.10;;;;;;;23.78;39.66;98866.09;5038970;28;20638;-77
2022/08/15 01:05:25;;;;;;;4.00;2.17;;;;;;;23.82;40.59;98869.13;5007899;28;20265;-77
2022/08/15 01:07:51;;;;;;;2.67;2.00;;;;;;;23.69;41.26;98877.78;5014752;28;20318;-78
2022/08/15 01:10:16;;;;;;;3.17;2.37;;;;;;;23.46;41.24;98897.31;5005507;28;20688;-77
2022/08/15 01:12:42;;;;;;;5.97;1.83;;;;;;;23.41;41.50;98901.56;5020884;28;20739;-78
2022/08/15 01:15:12;;;;;;;3.90;2.23;;;;;;;23.34;40.85;98902.34;5013664;28;20207;-77
2022/08/15 01:17:39;;;;;;;3.37;1.80;;;;;;;23.34;41.09;98906.75;5012800;28;20175;-76
2022/08/15 01:20:11;;;;;;;4.03;1.97;;;;;;;23.22;41.62;98911.78;5007099;28;20201;-76
2022/08/15 01:23:11;;;;;;;2.63;2.00;;;;;;;23.15;41.78;98914.31;5043898;28;20197;-77
2022/08/15 01:25:42;;;;;;;2.57;1.80;;;;;;;23.21;41.80;98918.81;5013637;28;20205;-77
2022/08/15 01:28:19;;;;;;;5.43;2.20;;;;;;;23.17;41.72;98932.50;5012147;28;20273;-77
2022/08/15 01:30:52;;;;;;;4.57;1.83;;;;;;;23.31;41.40;98931.56;5015654;28;20715;-77
2022/08/15 01:33:19;;;;;;;4.50;1.70;;;;;;;23.33;41.52;98929.56;5022449;28;20269;-77
2022/08/15 01:35:46;;;;;;;4.30;1.93;;;;;;;23.37;41.71;98937.88;5012209;28;20244;-77
2022/08/15 01:38:35;;;;;;;7.10;2.63;;;;;;;23.35;42.39;98929.38;5013267;28;20187;-77
2022/08/15 01:41:26;;;;;;;6.90;2.17;;;;;;;23.39;42.79;98933.22;5017621;28;20244;-77
2022/08/15 01:44:08;;;;;;;2.90;2.13;;;;;;;23.42;43.43;98935.47;5017199;28;20260;-77
2022/08/15 01:46:42;;;;;;;2.77;2.17;;;;;;;23.39;44.33;98932.41;5013855;28;20232;-77
2022/08/15 01:49:16;;;;;;;2.43;2.00;;;;;;;23.43;43.92;98937.09;5023927;28;20189;-77
2022/08/15 01:51:42;;;;;;;3.03;2.40;;;;;;;23.47;44.73;98934.88;5030110;28;20684;-77
2022/08/15 01:54:11;;;;;;;4.73;2.00;;;;;;;23.50;45.16;98939.72;5014377;28;20627;-78
2022/08/15 01:56:42;;;;;;;9.27;2.73;;;;;;;23.24;47.42;98941.22;5012387;28;20757;-77
2022/08/15 01:59:14;;;;;;;4.53;2.83;;;;;;;23.16;48.94;98933.53;5012098;28;20309;-77
2022/08/15 02:01:59;;;;;;;3.47;2.37;;;;;;;23.20;49.48;98937.38;5018970;28;20223;-78
2022/08/15 02:04:28;;;;;;;5.27;2.20;;;;;;;23.28;49.87;98936.41;5012310;28;20183;-78
2022/08/15 02:07:00;;;;;;;5.07;2.37;;;;;;;23.18;51.66;98934.13;5011841;28;20634;-78
2022/08/15 02:09:26;;;;;;;6.57;2.37;;;;;;;23.26;52.75;98930.53;5011986;28;20207;-78
2022/08/15 02:11:53;;;;;;;3.57;2.20;;;;;;;23.32;52.66;98933.19;5020235;28;20225;-77
2022/08/15 02:14:20;;;;;;;4.87;2.50;;;;;;;23.21;54.03;98918.81;5015157;28;20218;-77
2022/08/15 02:16:47;;;;;;;6.50;3.10;;;;;;;23.26;53.96;98926.09;5012050;28;20186;-77
2022/08/15 02:19:14;;;;;;;3.27;2.57;;;;;;;23.23;54.54;98917.81;5013139;28;20183;-76
2022/08/15 02:21:43;;;;;;;6.70;2.80;;;;;;;23.25;54.59;98927.09;5018647;28;20233;-77
2022/08/15 02:24:13;;;;;;;5.73;2.47;;;;;;;23.13;55.65;98923.38;5017866;28;20179;-78
2022/08/15 02:26:38;;;;;;;6.67;2.93;;;;;;;23.00;56.81;98929.38;5011967;28;20269;-78
2022/08/15 02:29:05;;;;;;;7.63;2.83;;;;;;;23.14;56.90;98931.03;5013202;28;20656;-77
2022/08/15 02:31:31;;;;;;;6.67;2.50;;;;;;;23.02;58.15;98936.03;5017029;28;20221;-77
2022/08/15 02:33:58;;;;;;;4.03;2.80;;;;;;;23.03;58.70;98934.22;5015631;28;20209;-77
2022/08/15 02:36:25;;;;;;;10.90;3.67;;;;;;;22.94;60.24;98936.19;5010996;28;20186;-76
2022/08/15 02:38:51;;;;;;;4.53;2.73;;;;;;;22.98;60.91;98941.88;5012628;28;20182;-78
2022/08/15 02:41:29;;;;;;;10.77;3.00;;;;;;;22.86;62.00;98938.94;5015103;28;20347;-78
2022/08/15 02:43:54;;;;;;;7.03;3.07;;;;;;;22.84;62.49;98938.34;5021558;28;20182;-76
2022/08/15 02:46:20;;;;;;;7.10;3.27;;;;;;;22.87;63.02;98941.41;5012877;28;20510;-76
2022/08/15 02:48:48;;;;;;;3.80;3.10;;;;;;;22.87;63.72;98936.16;5022814;28;20186;-76
2022/08/15 02:51:15;;;;;;;7.27;3.00;;;;;;;22.86;63.86;98939.78;5021822;28;20228;-75
2022/08/15 02:53:43;;;;;;;6.23;3.30;;;;;;;22.84;64.07;98935.72;5017732;28;20544;-75
2022/08/15 02:56:09;;;;;;;4.97;2.90;;;;;;;22.85;64.61;98938.16;5012370;28;20182;-76
2022/08/15 02:58:35;;;;;;;3.33;3.03;;;;;;;22.88;64.19;98942.19;5012567;28;20183;-76
2022/08/15 03:01:03;;;;;;;6.20;2.83;;;;;;;22.82;64.48;98943.81;4994447;28;20765;-78
2022/08/15 03:03:29;;;;;;;7.97;3.30;;;;;;;22.71;65.16;98946.91;5010837;28;20265;-76
2022/08/15 03:05:54;;;;;;;7.50;2.80;;;;;;;22.72;65.17;98945.94;5011753;28;20631;-76
2022/08/15 03:08:20;;;;;;;6.67;2.80;;;;;;;22.62;65.25;98938.41;5011999;28;20238;-76
2022/08/15 03:10:46;;;;;;;5.03;2.50;;;;;;;22.68;65.01;98936.84;5010096;28;20406;-75
2022/08/15 03:13:14;;;;;;;8.50;2.47;;;;;;;22.61;64.91;98935.97;5021546;28;20606;-75
2022/08/15 03:15:54;;;;;;;7.87;3.07;;;;;;;22.40;66.25;98933.22;5011647;28;20229;-75
2022/08/15 03:18:20;;;;;;;5.00;2.37;;;;;;;22.43;66.11;98929.41;5017721;28;20194;-75
2022/08/15 03:20:47;;;;;;;4.20;2.87;;;;;;;22.45;66.54;98932.66;5013927;28;20304;-75
2022/08/15 03:23:13;;;;;;;4.77;2.70;;;;;;;22.44;66.57;98936.25;5032187;28;20206;-76
2022/08/15 03:25:42;;;;;;;4.43;2.63;;;;;;;22.51;66.18;98926.66;5010438;28;20171;-76
2022/08/15 03:28:08;;;;;;;3.70;2.67;;;;;;;22.60;65.95;98923.88;5011866;28;20273;-76
2022/08/15 03:30:35;;;;;;;8.80;2.77;;;;;;;22.49;66.48;98926.00;4987180;28;20244;-76
2022/08/15 03:33:00;;;;;;;5.63;2.50;;;;;;;22.38;67.03;98929.16;5021682;28;20713;-76
2022/08/15 03:35:28;;;;;;;3.43;2.47;;;;;;;22.43;66.90;98929.41;5011563;28;20297;-76
2022/08/15 03:37:55;;;;;;;3.80;2.53;;;;;;;22.31;67.37;98920.41;5010827;28;20236;-76
2022/08/15 03:40:21;;;;;;;5.73;2.47;;;;;;;22.32;67.97;98925.44;5006582;28;20187;-76
2022/08/15 03:42:56;;;;;;;7.03;2.60;;;;;;;22.26;67.88;98928.81;5039095;28;20217;-76
2022/08/15 03:45:22;;;;;;;7.33;2.67;;;;;;;22.19;68.75;98930.56;5010170;28;20285;-74
2022/08/15 03:47:47;;;;;;;4.17;2.57;;;;;;;22.23;68.93;98934.44;5016270;28;20634;-75
2022/08/15 03:50:14;;;;;;;7.83;2.50;;;;;;;22.29;68.78;98945.97;5010393;28;20646;-75
2022/08/15 03:52:59;;;;;;;5.17;2.73;;;;;;;22.18;68.82;98944.69;5025695;28;20185;-77
2022/08/15 03:55:27;;;;;;;6.27;3.17;;;;;;;22.13;69.57;98947.84;5011060;28;20213;-69
2022/08/15 03:57:53;;;;;;;5.93;2.70;;;;;;;22.18;69.39;98942.84;5009636;28;20186;-69
2022/08/15 04:00:23;;;;;;;5.40;2.33;;;;;;;22.19;69.47;98938.41;5018074;28;20256;-65
2022/08/15 04:02:48;;;;;;;7.27;2.53;;;;;;;22.21;69.57;98944.28;5023937;28;20194;-70
2022/08/15 04:05:14;;;;;;;3.57;2.53;;;;;;;22.13;69.94;98941.78;5012095;28;21948;-69
2022/08/15 04:07:41;;;;;;;3.50;2.30;;;;;;;22.10;69.83;98935.13;5013668;28;20222;-70
2022/08/15 04:10:17;;;;;;;2.90;2.60;;;;;;;22.22;69.32;98927.56;5006685;28;20175;-70
2022/08/15 04:12:44;;;;;;;5.10;2.77;;;;;;;22.14;69.49;98930.31;5028557;28;20187;-70
2022/08/15 04:15:13;;;;;;;7.90;2.73;;;;;;;22.23;69.12;98934.44;5013660;28;20206;-69
2022/08/15 04:17:39;;;;;;;5.73;2.60;;;;;;;22.27;68.56;98934.88;5013799;28;20175;-69
2022/08/15 04:20:07;;;;;;;4.00;2.43;;;;;;;22.11;69.40;98936.75;5006207;28;20282;-70
2022/08/15 04:22:37;;;;;;;4.50;2.80;;;;;;;22.00;70.26;98937.25;5029505;28;20648;-70
2022/08/15 04:25:18;;;;;;;5.80;2.70;;;;;;;22.02;70.28;98936.06;5013399;28;20177;-70
2022/08/15 04:27:45;;;;;;;7.43;2.47;;;;;;;21.97;71.02;98942.84;5013739;28;20558;-70
2022/08/15 04:30:11;;;;;;;3.80;3.00;;;;;;;21.98;70.77;98941.84;5006819;28;20597;-69
2022/08/15 04:32:37;;;;;;;4.10;2.47;;;;;;;21.95;71.50;98944.84;5045113;28;20191;-69
2022/08/15 04:35:03;;;;;;;7.20;3.07;;;;;;;21.94;71.63;98946.63;5013229;28;20312;-69
2022/08/15 04:37:29;;;;;;;3.37;2.70;;;;;;;21.96;71.37;98949.88;5013588;28;20601;-69
2022/08/15 04:39:56;;;;;;;7.43;2.87;;;;;;;21.89;71.13;98955.06;5013892;28;20175;-69
2022/08/15 04:42:24;;;;;;;4.17;2.80;;;;;;;21.87;71.52;98951.00;5037619;28;20782;-69
2022/08/15 04:44:50;;;;;;;4.57;2.40;;;;;;;21.89;71.61;98956.84;5014496;28;20266;-69
2022/08/15 04:47:16;;;;;;;4.57;2.60;;;;;;;21.88;71.74;98952.63;5013740;28;20214;-69
2022/08/15 04:49:42;;;;;;;4.50;2.83;;;;;;;22.07;70.94;98957.25;5023479;28;20334;-69
2022/08/15 04:52:14;;;;;;;6.30;2.33;;;;;;;22.16;70.24;98951.91;5038677;28;20230;-70
2022/08/15 04:54:41;;;;;;;5.37;2.70;;;;;;;21.95;71.52;98948.25;5013114;28;20293;-70
2022/08/15 04:57:07;;;;;;;3.73;2.60;;;;;;;21.91;71.87;98952.25;5013385;28;20244;-69
2022/08/15 04:59:33;;;;;;;6.07;2.50;;;;;;;21.97;71.82;98954.13;5014623;28;20194;-69
2022/08/15 05:01:58;;;;;;;3.10;2.30;;;;;;;22.06;71.53;98960.84;5022044;28;20225;-70
2022/08/15 05:04:24;;;;;;;3.77;2.33;;;;;;;22.00;71.20;98961.59;5013294;28;20183;-69
2022/08/15 05:06:49;;;;;;;3.60;2.57;;;;;;;21.99;72.09;98964.41;5046177;28;20194;-70
2022/08/15 05:09:15;;;;;;;3.10;2.60;;;;;;;21.98;71.87;98960.16;5013318;28;20241;-69
2022/08/15 05:11:40;;;;;;;4.13;2.63;;;;;;;22.10;71.31;98961.31;5039573;28;20248;-70
2022/08/15 05:14:06;;;;;;;3.33;2.40;;;;;;;22.06;71.97;98957.44;5016742;28;20217;-70
2022/08/15 05:16:32;;;;;;;4.00;2.53;;;;;;;22.13;71.70;98962.72;5012025;28;20183;-70
2022/08/15 05:18:58;;;;;;;5.20;2.43;;;;;;;22.03;71.91;98961.25;5014539;28;20179;-71
2022/08/15 05:21:24;;;;;;;7.23;2.67;;;;;;;21.99;72.59;98967.84;5016984;28;20314;-70
2022/08/15 05:23:50;;;;;;;3.93;2.60;;;;;;;21.98;73.50;98966.22;5017785;28;20190;-70
2022/08/15 05:26:15;;;;;;;5.00;2.80;;;;;;;21.93;73.43;98968.59;5012604;28;20179;-70
2022/08/15 05:28:41;;;;;;;4.10;3.20;;;;;;;22.06;73.13;98966.09;5013829;28;20551;-70
2022/08/15 05:31:09;;;;;;;4.53;2.87;;;;;;;22.17;72.38;98964.00;5015114;28;20221;-68
2022/08/15 05:33:35;;;;;;;2.93;2.40;;;;;;;22.21;72.13;98960.78;5019947;28;20171;-69
2022/08/15 05:36:03;;;;;;;5.07;3.00;;;;;;;22.36;71.93;98968.63;5011962;28;20313;-70
2022/08/15 05:38:35;;;;;;;8.07;2.60;;;;;;;22.53;71.27;98974.41;5012618;28;20220;-70
2022/08/15 05:41:22;;;;;;;5.17;2.30;;;;;;;22.36;71.34;98965.16;5014118;28;20735;-69
2022/08/15 05:44:06;;;;;;;5.80;3.33;;;;;;;22.33;71.56;98955.09;5017620;28;20607;-70
2022/08/15 05:46:46;;;;;;;2.97;2.63;;;;;;;22.28;72.63;98966.13;5012348;28;20197;-70
2022/08/15 05:49:36;;;;;;;6.17;2.90;;;;;;;22.33;71.61;98966.34;5022360;28;20731;-70
2022/08/15 05:52:40;;;;;;;4.63;2.53;;;;;;;22.37;71.35;98964.19;5038111;28;20638;-70
2022/08/15 05:55:20;;;;;;;5.57;2.73;;;;;;;22.55;70.74;98966.34;4990973;28;20214;-68
2022/08/15 05:58:05;;;;;;;3.83;2.47;;;;;;;22.55;70.65;98956.69;4998890;28;20684;-70
2022/08/15 06:00:33;;;;;;;5.40;3.17;;;;;;;22.60;70.30;98956.13;5009290;28;20366;-70
2022/08/15 06:03:14;;;;;;;3.57;2.37;;;;;;;22.68;70.46;98949.94;5024357;28;20189;-70
2022/08/15 06:05:44;;;;;;;6.00;2.70;;;;;;;22.88;69.32;98956.13;5013155;28;20182;-69
2022/08/15 06:08:24;;;;;;;4.87;2.60;;;;;;;22.93;68.86;98952.91;5011699;28;20218;-71
2022/08/15 06:10:54;;;;;;;3.93;2.60;;;;;;;22.98;68.64;98947.91;5011044;28;20621;-72
2022/08/15 06:13:28;;;;;;;4.17;2.80;;;;;;;22.88;70.42;98952.69;5021254;28;20193;-71
2022/08/15 06:16:06;;;;;;;3.27;2.77;;;;;;;23.19;67.59;98961.97;5010711;28;20209;-70
2022/08/15 06:18:36;;;;;;;6.13;2.77;;;;;;;23.19;67.89;98960.16;5011091;28;20265;-69
2022/08/15 06:21:11;;;;;;;6.27;2.80;;;;;;;23.39;67.37;98959.44;5033724;28;20313;-70
2022/08/15 06:23:46;;;;;;;6.63;2.80;;;;;;;23.52;65.98;98963.97;5009119;28;20637;-74
2022/08/15 06:26:19;;;;;;;7.53;3.40;;;;;;;23.56;65.27;98962.56;5011637;28;20708;-71
2022/08/15 06:29:04;;;;;;;5.97;2.83;;;;;;;23.53;65.67;98968.22;5011797;28;20278;-70
2022/08/15 06:31:37;;;;;;;3.67;2.83;;;;;;;23.74;65.39;98966.44;5016491;28;20225;-71
2022/08/15 06:34:16;;;;;;;5.37;2.80;;;;;;;23.73;65.70;98965.66;5011725;28;20202;-72
2022/08/15 06:37:39;;;;;;;5.00;2.60;;;;;;;24.18;65.01;98957.28;5008696;28;20178;-72
2022/08/15 06:40:16;;;;;;;4.53;2.60;;;;;;;24.69;61.58;98955.91;4994328;28;20658;-71
2022/08/15 06:42:44;;;;;;;3.90;3.00;;;;;;;25.09;60.29;98955.00;5033633;28;20199;-71
2022/08/15 06:45:29;;;;;;;4.03;2.50;;;;;;;24.79;61.11;98953.66;5010432;28;20175;-71
2022/08/15 06:48:10;;;;;;;5.07;2.60;;;;;;;24.54;62.20;98960.53;5010193;28;20182;-71
2022/08/15 06:50:41;;;;;;;5.47;2.70;;;;;;;24.65;61.43;98966.00;5008590;28;20276;-70
2022/08/15 06:53:18;;;;;;;4.60;2.40;;;;;;;24.38;63.99;98969.63;5023244;28;20191;-66
2022/08/15 06:56:20;;;;;;;3.90;2.60;;;;;;;24.59;62.58;98958.09;5012062;28;20213;-67
2022/08/15 06:58:55;;;;;;;4.80;3.00;;;;;;;24.55;63.98;98965.59;5012789;28;20318;-66
2022/08/15 07:01:31;;;;;;;4.37;2.70;;;;;;;24.73;62.75;98962.34;4994784;28;20224;-66
2022/08/15 07:04:19;;;;;;;9.00;3.13;;;;;;;24.43;62.62;98970.63;5009671;28;20178;-67
2022/08/15 07:06:54;;;;;;;4.43;2.60;;;;;;;24.47;62.83;98984.19;5011352;28;20179;-66
2022/08/15 07:09:39;;;;;;;5.53;2.87;;;;;;;24.49;62.98;98982.16;5012505;28;20252;-67
2022/08/15 07:12:19;;;;;;;6.73;3.00;;;;;;;24.20;63.88;98985.97;5018653;28;20236;-67
2022/08/15 07:15:20;;;;;;;5.33;3.00;;;;;;;23.80;66.75;98978.78;5012877;28;20235;-66
2022/08/15 07:17:51;;;;;;;5.70;2.90;;;;;;;23.84;67.23;98975.56;5001793;28;20269;-67
2022/08/15 07:20:17;;;;;;;5.50;2.60;;;;;;;23.67;68.09;98975.09;5003801;28;20187;-67
2022/08/15 07:22:43;;;;;;;6.47;3.23;;;;;;;23.74;67.05;98975.16;5018846;28;20185;-70
2022/08/15 07:25:11;;;;;;;6.57;2.77;;;;;;;23.59;69.32;98977.09;5011896;28;20179;-68
2022/08/15 07:27:37;;;;;;;5.53;2.97;;;;;;;23.46;70.41;98986.53;5012934;28;20257;-70
2022/08/15 07:30:20;;;;;;;3.73;2.50;;;;;;;23.42;70.66;98987.09;5012674;28;20225;-69
2022/08/15 07:32:56;;;;;;;6.07;2.97;;;;;;;23.49;69.64;98983.53;4996022;28;20595;-69
2022/08/15 07:35:24;;;;;;;8.07;3.10;;;;;;;23.16;72.00;98984.16;5012051;28;20206;-68
2022/08/15 07:37:59;;;;;;;3.27;2.53;;;;;;;23.33;70.78;98982.03;5011466;28;20195;-69
2022/08/15 07:40:32;;;;;;;4.70;3.00;;;;;;;23.35;70.10;98987.09;5007208;28;20244;-70
2022/08/15 07:43:01;;;;;;;8.13;2.67;;;;;;;23.06;70.87;98991.53;5023839;28;20247;-69
2022/08/15 07:45:31;;;;;;;3.27;2.57;;;;;;;23.15;71.47;98990.38;5010785;28;20646;-69
2022/08/15 07:48:04;;;;;;;4.50;2.80;;;;;;;23.02;71.19;98992.91;5017135;28;20596;-72
2022/08/15 07:50:34;;;;;;;3.43;2.70;;;;;;;23.26;69.54;98994.31;5012380;28;20230;-70
2022/08/15 07:53:10;;;;;;;5.63;2.50;;;;;;;23.41;70.83;99002.06;5037038;28;20182;-69
2022/08/15 07:55:36;;;;;;;4.50;2.77;;;;;;;23.51;70.94;98999.06;5011348;28;20198;-68
2022/08/15 07:58:17;;;;;;;4.70;3.03;;;;;;;23.49;70.64;99008.94;5011135;28;20175;-69
2022/08/15 08:00:52;;;;;;;5.53;2.70;;;;;;;23.12;72.11;99005.69;5008857;28;20256;-69
2022/08/15 08:03:27;;;;;;;3.67;2.53;;;;;;;22.98;73.95;99005.59;5020928;28;20213;-69
2022/08/15 08:06:01;;;;;;;6.63;2.50;;;;;;;23.25;72.98;99018.13;5012381;28;20656;-71
2022/08/15 08:08:45;;;;;;;3.50;2.63;;;;;;;23.50;71.46;99021.06;5012619;28;20249;-71
2022/08/15 08:11:39;;;;;;;4.10;3.00;;;;;;;23.51;69.82;99022.69;5007879;28;20214;-71
2022/08/15 08:14:08;;;;;;;7.00;2.40;;;;;;;23.67;69.19;99026.81;5012673;28;20297;-72
2022/08/15 08:16:55;;;;;;;4.10;2.33;;;;;;;24.17;66.39;99027.41;5010988;28;20214;-66
2022/08/15 08:19:37;;;;;;;7.47;2.60;;;;;;;24.42;64.86;99039.16;5012064;28;20186;-73
2022/08/15 08:22:18;;;;;;;7.17;2.53;;;;;;;24.91;62.00;99030.13;5007029;28;20229;-70
2022/08/15 08:25:01;;;;;;;3.17;2.70;;;;;;;24.89;62.95;99031.34;4989898;28;20191;-72
2022/08/15 08:28:16;;;;;;;4.13;2.50;;;;;;;24.68;62.68;99030.53;5000674;28;20192;-68
2022/08/15 08:31:02;;;;;;;6.55;2.65;;;;;;;24.85;61.96;99035.41;4968859;28;20233;-70
2022/08/15 08:33:37;;;;;;;4.95;2.55;;;;;;;24.78;62.84;99038.84;5004659;28;20187;-69
2022/08/15 08:36:21;;;;;;;4.60;3.90;;;;;;;24.26;65.25;99049.06;4992526;28;20223;-69
2022/08/15 08:38:59;;;;;;;3.10;2.37;;;;;;;24.49;64.09;99055.75;4992170;28;20266;-70
2022/08/15 08:41:45;;;;;;;3.50;2.73;;;;;;;24.35;65.28;99057.56;4995717;28;20240;-67
2022/08/15 08:44:19;;;;;;;6.87;2.50;;;;;;;24.22;65.27;99060.16;4986584;28;20195;-66
2022/08/15 08:47:27;;;;;;;5.77;3.20;;;;;;;23.87;67.19;99058.41;4991151;28;20191;-66
2022/08/15 08:50:15;;;;;;;5.13;3.03;;;;;;;23.73;68.39;99062.78;5013123;28;20589;-66
2022/08/15 08:52:52;;;;;;;10.90;10.13;;;;;;;23.65;68.22;99062.94;4906916;28;20213;-67
2022/08/15 08:55:21;;;;;;;5.47;2.40;;;;;;;23.62;68.39;99061.50;4994715;28;20207;-71
2022/08/15 08:57:58;;;;;;;4.47;2.80;;;;;;;23.62;68.70;99061.50;4993747;28;20203;-68
2022/08/15 09:00:32;;;;;;;2.80;2.60;;;;;;;23.62;68.33;99065.97;4991347;28;20192;-66
2022/08/15 09:03:27;;;;;;;5.23;2.27;;;;;;;23.60;68.93;99068.75;5004481;28;20233;-64
2022/08/15 09:10:32;;;;;;;3.80;2.70;;;;;;;24.84;62.30;99075.84;3886878;28;1240433;-67
2022/08/15 09:15:00;;;;;;;4.80;2.80;;;;;;;24.81;62.04;99084.97;3759153;27;4665166;-66
2022/08/15 09:17:28;;;;;;;6.22;2.70;;;;;;;24.87;61.12;99083.31;4994006;28;25198;-69
2022/08/15 09:19:56;;;;;;;2.57;2.37;;;;;;;24.81;62.85;99088.38;5101854;28;20187;-64
2022/08/15 09:22:23;;;;;;;4.60;2.10;;;;;;;24.67;63.77;99085.94;5063067;28;20270;-65
2022/08/15 09:24:48;;;;;;;5.37;2.40;;;;;;;24.53;64.50;99095.59;5066910;28;20548;-65
2022/08/15 09:27:27;;;;;;;8.03;2.70;;;;;;;24.20;65.15;99088.44;5068512;28;20179;-68
2022/08/15 09:30:02;;;;;;;7.73;2.73;;;;;;;24.27;66.17;99090.06;5055510;28;20204;-66
2022/08/15 09:32:27;;;;;;;34.70;32.93;;;;;;;24.65;64.99;99086.16;4846733;28;20309;-64
2022/08/15 09:39:58;;;;;;;4.70;2.13;;;;;;;25.84;58.64;99086.25;4737145;28;25089;-66
2022/08/15 09:43:02;;;;;;;2.63;2.20;;;;;;;26.92;53.47;99081.19;3414434;28;60110;-68
2022/08/15 09:45:39;;;;;;;2.95;2.65;;;;;;;27.92;50.04;99091.78;5019901;28;20179;-67
2022/08/15 09:48:17;;;;;;;7.25;2.53;;;;;;;27.66;49.53;99089.25;5021377;28;20183;-66
2022/08/15 09:50:59;;;;;;;5.03;2.17;;;;;;;27.98;48.80;99094.38;5018196;28;20224;-70
2022/08/15 09:53:40;;;;;;;3.22;2.35;;;;;;;29.03;45.16;99091.47;5011861;28;20178;-67
2022/08/15 09:56:10;;;;;;;8.90;2.30;;;;;;;29.46;43.45;99095.63;4998764;28;20261;-66
2022/08/15 09:58:49;;;;;;;3.03;2.30;;;;;;;29.38;44.29;99090.66;5008085;28;20992;-66
2022/08/15 10:01:28;;;;;;;6.85;2.63;;;;;;;29.33;43.12;99095.84;5014855;28;20255;-69
2022/08/15 10:04:09;;;;;;;4.80;2.10;;;;;;;29.07;43.34;99091.81;5027052;28;20186;-68
2022/08/15 10:07:16;;;;;;;2.97;2.38;;;;;;;28.85;44.27;99084.41;5037620;28;20179;-65
2022/08/15 10:10:08;;;;;;;2.35;2.15;;;;;;;30.22;40.99;99083.31;5016762;28;20195;-68
2022/08/15 10:12:37;;;;;;;2.92;2.35;;;;;;;32.90;34.69;99084.06;4997307;28;20333;-65
2022/08/15 10:15:31;;;;;;;3.72;2.55;;;;;;;34.16;32.53;99085.19;5008655;28;20207;-62
2022/08/15 10:17:57;;;;;;;2.75;2.00;;;;;;;34.48;31.90;99075.34;5007754;28;20205;-64
2022/08/15 10:20:26;;;;;;;1.98;1.83;;;;;;;34.16;32.62;99081.69;5002216;28;20242;-66
2022/08/15 10:23:00;;;;;;;5.53;2.08;;;;;;;33.86;31.78;99086.69;5027527;28;20178;-66
2022/08/15 10:25:36;;;;;;;2.33;2.00;;;;;;;33.87;31.12;99084.84;5007614;28;20241;-63
2022/08/15 10:28:13;;;;;;;4.40;2.10;;;;;;;34.24;31.42;99075.84;5008071;28;20186;-65
2022/08/15 10:30:46;;;;;;;3.90;2.20;;;;;;;34.26;30.62;99085.19;5003081;28;20258;-69
2022/08/15 10:33:26;;;;;;;3.13;1.85;;;;;;;33.29;32.75;99086.47;4990533;28;20198;-66
2022/08/15 10:35:55;;;;;;;2.85;2.00;;;;;;;32.98;33.15;99086.25;5004715;28;20652;-65
2022/08/15 10:38:25;;;;;;;4.35;2.25;;;;;;;31.02;36.95;99085.94;5004064;28;20239;-69
2022/08/15 10:41:28;;;;;;;4.30;2.13;;;;;;;29.90;40.12;99075.84;4997750;28;20227;-63
2022/08/15 10:44:20;;;;;;;3.28;2.00;;;;;;;30.08;39.74;99083.59;5009436;28;20226;-65
2022/08/15 10:46:57;;;;;;;4.53;2.25;;;;;;;30.20;40.40;99075.59;5004775;28;20223;-61
2022/08/15 10:49:43;;;;;;;4.13;2.30;;;;;;;30.02;40.69;99079.25;5028640;28;20560;-66
2022/08/15 10:52:33;;;;;;;4.15;2.40;;;;;;;29.86;41.79;99079.97;5002848;28;20286;-67
2022/08/15 10:55:23;;;;;;;3.45;2.45;;;;;;;29.26;42.40;99092.47;5011209;28;20192;-70
2022/08/15 10:57:52;;;;;;;2.47;2.20;;;;;;;29.14;42.17;99098.59;5011099;28;20210;-67
2022/08/15 11:00:37;;;;;;;2.90;2.10;;;;;;;28.22;43.54;99093.66;4987001;28;20258;-65
2022/08/15 11:03:06;;;;;;;4.68;2.38;;;;;;;28.71;41.57;99094.41;4995213;28;20479;-64
2022/08/15 11:05:32;;;;;;;5.60;2.13;;;;;;;27.94;43.80;99100.31;4991653;28;20286;-66
2022/08/15 11:07:57;;;;;;;2.13;1.92;;;;;;;27.55;45.12;99100.53;4991635;28;20235;-64
2022/08/15 11:10:27;;;;;;;5.25;2.35;;;;;;;27.28;46.95;99099.97;4993132;28;20688;-65
2022/08/15 11:13:09;;;;;;;3.25;2.35;;;;;;;27.24;47.73;99099.59;4989140;28;20244;-63
2022/08/15 11:15:56;;;;;;;3.20;2.10;;;;;;;26.96;49.28;99103.47;4998451;28;20238;-64
2022/08/15 11:18:27;;;;;;;2.95;2.50;;;;;;;26.61;51.37;99100.47;4984682;28;20625;-67
2022/08/15 11:21:03;;;;;;;3.38;2.70;;;;;;;26.31;53.96;99103.69;4975940;28;20322;-65
2022/08/15 11:23:36;;;;;;;4.93;2.42;;;;;;;26.42;53.83;99103.03;4982166;28;20191;-66
2022/08/15 11:26:03;;;;;;;3.70;2.58;;;;;;;26.29;54.71;99106.53;4981156;28;20181;-65
2022/08/15 11:28:30;;;;;;;3.30;2.58;;;;;;;26.08;55.91;99105.81;4993818;28;20206;-63
2022/08/15 11:31:05;;;;;;;3.00;2.70;;;;;;;25.78;56.70;99108.94;4973527;28;20242;-61
2022/08/15 11:33:45;;;;;;;4.20;2.50;;;;;;;25.40;60.76;99111.47;4966251;28;20230;-62
2022/08/15 11:36:21;;;;;;;5.85;2.80;;;;;;;24.95;67.54;99118.13;4985704;28;20213;-63
2022/08/15 11:39:01;;;;;;;6.57;2.55;;;;;;;24.41;71.01;99119.03;4990206;28;20686;-62
2022/08/15 11:41:31;;;;;;;3.90;2.35;;;;;;;24.21;75.01;99117.13;4974273;28;20224;-62
2022/08/15 11:44:00;;;;;;;6.03;2.97;;;;;;;24.30;79.49;99126.47;5002330;28;20190;-63
2022/08/15 11:46:27;;;;;;;6.10;3.00;;;;;;;24.00;81.98;99121.50;4989538;28;20179;-61
2022/08/15 11:48:58;;;;;;;5.30;3.50;;;;;;;23.64;90.98;99121.69;5004953;28;20172;-62
2022/08/15 11:51:34;;;;;;;5.00;3.53;;;;;;;23.69;96.50;99128.00;4985818;28;20286;-62
2022/08/15 11:54:23;;;;;;;5.83;3.80;;;;;;;23.80;97.35;99124.03;4991942;28;20277;-61
2022/08/15 11:56:50;;;;;;;5.20;3.83;;;;;;;23.77;100.00;99121.75;4993919;28;20193;-61
2022/08/15 11:59:26;;;;;;;4.77;4.07;;;;;;;24.01;100.00;99117.06;4992018;28;20590;-61
2022/08/15 12:02:05;;;;;;;5.23;3.73;;;;;;;24.41;96.59;99116.41;4968000;28;20727;-59
2022/08/15 12:04:33;;;;;;;3.80;2.73;;;;;;;24.12;92.98;99118.31;4992089;28;20187;-60
2022/08/15 12:07:08;;;;;;;2.47;2.27;;;;;;;24.16;87.23;99116.91;4992798;28;20197;-61
2022/08/15 12:09:34;;;;;;;2.73;2.50;;;;;;;24.17;91.19;99114.13;4995618;28;20182;-60
2022/08/15 12:12:00;;;;;;;2.80;2.53;;;;;;;24.41;88.61;99108.50;4996735;28;20231;-60
2022/08/15 12:14:28;;;;;;;3.20;2.20;;;;;;;24.01;87.53;99102.13;4990563;28;20199;-61